Hauptseite
METAR-TAF:

METAR-TAF

Flughäfen :

Flughafen Curaçao

Curaçao, Niederländische Antillen

Breite: 12-12N, Länge: 068-58W, Höhe: 9 m

Beobachtung

Neuester Wetterbericht von vor 14 Minuten, um 13:00 UTC
Wind 13 kt aus Ost/Südost
Temperatur 29°C
Luftfeuchtigkeit 66%
Luftdruck 1014 hPa
Sichtweite 10 km oder mehr
keine Wolken unter 1500 m und keine Kumulonimbus oder Gewitterwolken

METAR: TNCC 201300Z 12013KT CAVOK 29/22 Q1014 NOSIG

Zeit: 09:14 (13:14 UTC)

Prognose

Neuester Wetterbericht von vor 3 Stunden und 44 Minuten, um 09:30 UTC
Gültige Prognose vom 20 um 12 UTC bis 21 um 12 UTC
Wind 12 kt aus Ost/Südost
Sichtweite 10 km oder mehr
Leicht bewölkt in der Höhe von 2000 ft

TAF: TNCC 200930Z 2012/2112 12012KT 9999 FEW020

Wetterbeobachtungen und Prognosen von mehr als 4000 Flughäfen (METAR und TAF Bericht).

Die verfügbaren Stationen werden durch gelbe und rote Markierungen auf der Karte dargestellt.

Führen Sie die Maus auf sie, um den Namen der Station zu sehen.

Darauf klicken, um die Beobachtung von Wetterbeobachtungen und Prognosen zu sehen.

Um die Karte zu ändern : klicken Sie auf den grünen Tasten mit einem schwarzen Kreuz Zum Vergrößern, auf den grünen Button mit einem Gedankenstrich zu verkleinern, oder auf die grünen Pfeile für benachbarte Karten.


METAR-TAF: